createdAt,value
2018-01-26T00:00:48.818Z,7.84
2018-01-26T00:01:58.247Z,7.78
2018-01-26T00:03:08.201Z,7.83
2018-01-26T00:04:17.898Z,7.9
2018-01-26T00:05:27.837Z,7.77
2018-01-26T00:06:37.780Z,7.85
2018-01-26T00:07:47.745Z,7.9
2018-01-26T00:08:57.685Z,7.8
2018-01-26T00:10:07.384Z,7.87
2018-01-26T00:11:17.326Z,7.88
2018-01-26T00:12:27.271Z,7.83
2018-01-26T00:13:37.202Z,7.85
2018-01-26T00:14:46.898Z,7.84
2018-01-26T00:15:56.850Z,7.81
2018-01-26T00:17:06.851Z,7.84
2018-01-26T00:18:16.281Z,7.83
2018-01-26T00:19:26.231Z,7.81
2018-01-26T00:20:35.913Z,7.84
2018-01-26T00:21:45.856Z,7.81
2018-01-26T00:22:55.802Z,7.81
2018-01-26T00:24:05.996Z,7.81
2018-01-26T00:25:15.942Z,7.9
2018-01-26T00:26:25.888Z,7.84
2018-01-26T00:27:35.830Z,7.87
2018-01-26T00:28:45.771Z,7.88
2018-01-26T00:29:55.462Z,7.83
2018-01-26T00:31:05.404Z,7.88
2018-01-26T00:32:15.390Z,7.85
2018-01-26T00:33:25.327Z,7.84
2018-01-26T00:34:35.363Z,7.85
2018-01-26T00:35:45.411Z,7.77
2018-01-26T00:36:55.343Z,7.75
2018-01-26T00:38:04.776Z,7.9
2018-01-26T00:39:13.952Z,7.84
2018-01-26T00:40:23.906Z,7.84
2018-01-26T00:41:33.595Z,7.87
2018-01-26T00:42:43.287Z,7.85
2018-01-26T00:43:53.230Z,7.95
2018-01-26T00:45:03.172Z,7.93
2018-01-26T00:46:13.124Z,7.98
2018-01-26T00:47:23.084Z,7.99
2018-01-26T00:48:33.036Z,7.93
2018-01-26T00:49:42.977Z,7.96
2018-01-26T00:50:52.917Z,8.01
2018-01-26T00:52:02.876Z,8.05
2018-01-26T00:53:12.822Z,8.03
2018-01-26T00:54:22.772Z,8.02
2018-01-26T00:55:32.717Z,8.05
2018-01-26T00:56:42.683Z,8.01
2018-01-26T00:57:52.657Z,8.03
2018-01-26T00:59:02.605Z,8.08
2018-01-26T01:00:12.785Z,8.09
2018-01-26T01:01:22.726Z,8.06
2018-01-26T01:02:32.416Z,8.05
2018-01-26T01:03:42.099Z,8.03
2018-01-26T01:04:52.042Z,8.03
2018-01-26T01:06:01.985Z,8.03
2018-01-26T01:07:11.695Z,7.99
2018-01-26T01:08:21.705Z,7.99
2018-01-26T01:09:31.652Z,8.02
2018-01-26T01:10:41.594Z,7.96
2018-01-26T01:11:51.280Z,8.01
2018-01-26T01:13:01.228Z,8.02
2018-01-26T01:14:11.173Z,7.98
2018-01-26T01:15:21.118Z,7.96
2018-01-26T01:16:31.090Z,7.95
2018-01-26T01:17:41.078Z,7.91
2018-01-26T01:18:50.761Z,8.01
2018-01-26T01:20:00.707Z,7.93
2018-01-26T01:21:10.663Z,7.9
2018-01-26T01:22:20.109Z,7.81
2018-01-26T01:23:29.792Z,7.88
2018-01-26T01:24:39.473Z,7.84
2018-01-26T01:25:48.911Z,7.87
2018-01-26T01:26:58.087Z,7.88
2018-01-26T01:28:07.772Z,7.84
2018-01-26T01:29:17.462Z,7.77
2018-01-26T01:30:27.148Z,7.81
2018-01-26T01:31:37.093Z,7.75
2018-01-26T01:32:46.530Z,7.84
2018-01-26T01:33:55.966Z,7.77
2018-01-26T01:35:05.686Z,7.75
2018-01-26T01:36:15.374Z,7.75
2018-01-26T01:37:25.060Z,7.75
2018-01-26T01:38:34.997Z,7.77
2018-01-26T01:39:44.690Z,7.81
2018-01-26T01:40:54.382Z,7.8
2018-01-26T01:42:03.556Z,7.87
2018-01-26T01:43:13.501Z,7.83
2018-01-26T01:44:22.931Z,7.83
2018-01-26T01:45:32.869Z,7.8
2018-01-26T01:46:42.556Z,7.8
2018-01-26T01:47:52.507Z,7.8
2018-01-26T01:49:02.453Z,7.72
2018-01-26T01:50:12.409Z,7.75
2018-01-26T01:51:22.623Z,7.75
2018-01-26T01:52:32.326Z,7.74
2018-01-26T01:53:42.278Z,7.72
2018-01-26T01:54:52.225Z,7.83
2018-01-26T01:56:01.918Z,7.8
2018-01-26T01:57:11.863Z,7.87
2018-01-26T01:58:21.804Z,7.88
2018-01-26T01:59:31.496Z,7.85
2018-01-26T02:00:41.435Z,7.88
2018-01-26T02:01:51.629Z,7.85
2018-01-26T02:03:01.574Z,7.85
2018-01-26T02:04:11.521Z,7.88
2018-01-26T02:05:21.463Z,7.85
2018-01-26T02:06:30.910Z,7.81
2018-01-26T02:07:40.852Z,7.88
2018-01-26T02:08:50.809Z,7.85
2018-01-26T02:10:00.484Z,7.88
2018-01-26T02:11:10.442Z,7.77
2018-01-26T02:12:20.393Z,7.77
2018-01-26T02:13:30.386Z,7.9
2018-01-26T02:14:40.325Z,7.85
2018-01-26T02:15:49.760Z,7.88
2018-01-26T02:16:59.711Z,7.83
2018-01-26T02:18:09.664Z,7.77
2018-01-26T02:19:19.341Z,7.75
2018-01-26T02:20:29.280Z,7.78
2018-01-26T02:21:39.234Z,7.78
2018-01-26T02:22:48.926Z,7.69
2018-01-26T02:23:58.365Z,7.69
2018-01-26T02:25:08.313Z,7.81
2018-01-26T02:26:18.259Z,7.85
2018-01-26T02:27:28.205Z,7.85
2018-01-26T02:28:38.159Z,7.91
2018-01-26T02:29:48.121Z,7.88
2018-01-26T02:30:58.060Z,7.9
2018-01-26T02:32:07.742Z,7.85
2018-01-26T02:33:17.694Z,7.9
2018-01-26T02:34:27.644Z,7.85
2018-01-26T02:35:37.600Z,7.93
2018-01-26T02:36:47.541Z,7.96
2018-01-26T02:37:57.493Z,8.03
2018-01-26T02:39:07.187Z,7.98
2018-01-26T02:40:16.870Z,7.99
2018-01-26T02:41:26.822Z,8.03
2018-01-26T02:42:36.521Z,7.95
2018-01-26T02:43:46.469Z,7.93
2018-01-26T02:44:56.417Z,8.06
2018-01-26T02:46:06.367Z,8.05
2018-01-26T02:47:16.057Z,8.03
2018-01-26T02:48:25.764Z,7.96
2018-01-26T02:49:35.192Z,8.06
2018-01-26T02:50:45.141Z,8.02
2018-01-26T02:51:55.085Z,8.09
2018-01-26T02:53:05.041Z,8.11
2018-01-26T02:54:14.993Z,8.08
2018-01-26T02:55:25.041Z,8.16
2018-01-26T02:56:34.983Z,8.14
2018-01-26T02:57:44.669Z,8.13
2018-01-26T02:58:54.362Z,8.11
2018-01-26T03:00:04.315Z,8.13
2018-01-26T03:01:14.006Z,8.11
2018-01-26T03:02:23.964Z,8.2
2018-01-26T03:03:33.658Z,8.2
2018-01-26T03:04:43.605Z,8.23
2018-01-26T03:05:53.287Z,8.23
2018-01-26T03:07:02.974Z,8.23
2018-01-26T03:08:12.916Z,8.32
2018-01-26T03:09:22.084Z,8.32
2018-01-26T03:10:32.019Z,8.27
2018-01-26T03:11:41.971Z,8.34
2018-01-26T03:12:51.661Z,8.35
2018-01-26T03:14:01.600Z,8.35
2018-01-26T03:15:11.821Z,8.31
2018-01-26T03:16:21.525Z,8.36
2018-01-26T03:17:31.471Z,8.31
2018-01-26T03:18:40.906Z,8.32
2018-01-26T03:19:50.592Z,8.35
2018-01-26T03:21:00.543Z,8.31
2018-01-26T03:22:10.496Z,8.35
2018-01-26T03:23:20.178Z,8.36
2018-01-26T03:24:30.117Z,8.34
2018-01-26T03:25:40.076Z,8.28
2018-01-26T03:26:50.156Z,8.32
2018-01-26T03:28:00.144Z,8.26
2018-01-26T03:29:09.814Z,8.21
2018-01-26T03:30:19.767Z,8.2
2018-01-26T03:31:29.742Z,8.23
2018-01-26T03:32:39.180Z,8.24
2018-01-26T03:33:49.133Z,8.17
2018-01-26T03:34:58.819Z,8.08
2018-01-26T03:36:08.766Z,8.02
2018-01-26T03:37:18.705Z,8.01
2018-01-26T03:38:28.659Z,8.02
2018-01-26T03:39:38.343Z,7.96
2018-01-26T03:40:48.294Z,8.02
2018-01-26T03:41:58.254Z,7.99
2018-01-26T03:43:08.201Z,8.05
2018-01-26T03:44:18.142Z,7.93
2018-01-26T03:45:28.082Z,7.95
2018-01-26T03:46:38.025Z,8.01
2018-01-26T03:47:48.023Z,7.95
2018-01-26T03:48:57.978Z,7.87
2018-01-26T03:50:07.673Z,7.85
2018-01-26T03:51:17.619Z,7.85
2018-01-26T03:52:27.829Z,7.91
2018-01-26T03:53:37.791Z,7.84
2018-01-26T03:54:47.742Z,7.8
2018-01-26T03:55:57.181Z,7.67
2018-01-26T03:57:06.619Z,7.8
2018-01-26T03:58:16.813Z,7.81
2018-01-26T03:59:26.772Z,7.75
2018-01-26T04:00:36.471Z,7.77
2018-01-26T04:01:45.895Z,7.66
2018-01-26T04:02:55.835Z,7.7
2018-01-26T04:04:05.778Z,7.66
2018-01-26T04:05:15.208Z,7.61
2018-01-26T04:06:24.893Z,7.61
2018-01-26T04:07:34.590Z,7.61
2018-01-26T04:08:44.583Z,7.61
2018-01-26T04:09:54.514Z,7.62
2018-01-26T04:11:03.955Z,7.7
2018-01-26T04:12:13.634Z,7.61
2018-01-26T04:13:23.571Z,7.59
2018-01-26T04:14:33.526Z,7.64
2018-01-26T04:15:43.210Z,7.66
2018-01-26T04:16:53.152Z,7.72
2018-01-26T04:18:03.099Z,7.61
2018-01-26T04:19:12.783Z,7.64
2018-01-26T04:20:22.472Z,7.61
2018-01-26T04:21:32.422Z,7.59
2018-01-26T04:22:42.109Z,7.55
2018-01-26T04:23:52.052Z,7.58
2018-01-26T04:25:02.007Z,7.47
2018-01-26T04:26:11.701Z,7.51
2018-01-26T04:27:21.654Z,7.4
2018-01-26T04:28:31.366Z,7.41
2018-01-26T04:29:41.308Z,7.33
2018-01-26T04:30:51.500Z,7.32
2018-01-26T04:32:01.199Z,7.32
2018-01-26T04:33:10.946Z,7.31
2018-01-26T04:34:20.632Z,7.15
2018-01-26T04:35:30.593Z,7.18
2018-01-26T04:36:40.536Z,7.15
2018-01-26T04:37:50.252Z,7.13
2018-01-26T04:38:59.936Z,7.13
2018-01-26T04:40:09.620Z,7.13
2018-01-26T04:41:19.557Z,7.07
2018-01-26T04:42:29.540Z,7.04
2018-01-26T04:43:39.481Z,7.05
2018-01-26T04:44:49.439Z,7.04
2018-01-26T04:45:59.378Z,7
2018-01-26T04:47:09.072Z,7.07
2018-01-26T04:48:19.021Z,7.07
2018-01-26T04:49:28.973Z,6.97
2018-01-26T04:50:38.919Z,7
2018-01-26T04:51:48.879Z,6.95
2018-01-26T04:52:58.826Z,6.87
2018-01-26T04:54:08.764Z,6.87
2018-01-26T04:55:18.700Z,6.89
2018-01-26T04:56:28.672Z,6.89
2018-01-26T04:57:38.609Z,6.86
2018-01-26T04:58:48.095Z,6.83
2018-01-26T04:59:58.079Z,6.85
2018-01-26T05:01:08.027Z,6.8
2018-01-26T05:02:17.972Z,6.78
2018-01-26T05:03:27.721Z,6.74
2018-01-26T05:04:37.664Z,6.82
2018-01-26T05:05:47.660Z,6.67
2018-01-26T05:06:57.606Z,6.74
2018-01-26T05:08:07.287Z,6.64
2018-01-26T05:09:17.241Z,6.65
2018-01-26T05:10:26.918Z,6.72
2018-01-26T05:11:36.862Z,6.67
2018-01-26T05:12:46.812Z,6.65
2018-01-26T05:13:56.757Z,6.56
2018-01-26T05:15:06.706Z,6.56
2018-01-26T05:16:16.655Z,6.59
2018-01-26T05:17:26.404Z,6.59
2018-01-26T05:18:36.350Z,6.59
2018-01-26T05:19:45.774Z,6.47
2018-01-26T05:20:55.719Z,6.59
2018-01-26T05:22:05.667Z,6.54
2018-01-26T05:23:15.613Z,6.59
2018-01-26T05:24:25.327Z,6.57
2018-01-26T05:25:35.268Z,6.54
2018-01-26T05:26:44.958Z,6.54
2018-01-26T05:27:54.652Z,6.5
2018-01-26T05:29:04.704Z,6.38
2018-01-26T05:30:14.660Z,6.41
2018-01-26T05:31:24.614Z,6.36
2018-01-26T05:32:34.046Z,6.35
2018-01-26T05:33:43.989Z,6.28
2018-01-26T05:34:54.188Z,6.31
2018-01-26T05:36:04.138Z,6.31
2018-01-26T05:37:14.084Z,6.25
2018-01-26T05:38:23.510Z,6.32
2018-01-26T05:39:33.453Z,6.29
2018-01-26T05:40:43.171Z,6.32
2018-01-26T05:41:53.112Z,6.25
2018-01-26T05:43:03.059Z,6.25
2018-01-26T05:44:13.002Z,6.19
2018-01-26T05:45:22.946Z,6.2
2018-01-26T05:46:32.888Z,6.13
2018-01-26T05:47:42.838Z,6.15
2018-01-26T05:48:52.782Z,6.22
2018-01-26T05:50:02.781Z,6.12
2018-01-26T05:51:12.987Z,6.12
2018-01-26T05:52:22.944Z,6.15
2018-01-26T05:53:32.887Z,6.15
2018-01-26T05:54:42.826Z,6.16
2018-01-26T05:55:52.518Z,6.09
2018-01-26T05:57:02.475Z,6.02
2018-01-26T05:58:12.420Z,6.12
2018-01-26T05:59:22.389Z,6.07
2018-01-26T06:00:32.346Z,6.06
2018-01-26T06:01:42.039Z,6.09
2018-01-26T06:02:51.733Z,6.1
2018-01-26T06:04:01.676Z,6.1
2018-01-26T06:05:11.441Z,5.97
2018-01-26T06:06:21.474Z,6.1
2018-01-26T06:07:31.440Z,6.06
2018-01-26T06:08:41.380Z,6.01
2018-01-26T06:09:51.322Z,6.05
2018-01-26T06:11:01.285Z,6.01
2018-01-26T06:12:10.970Z,5.94
2018-01-26T06:13:20.922Z,6.09
2018-01-26T06:14:30.910Z,6.13
2018-01-26T06:15:40.853Z,5.99
2018-01-26T06:16:50.790Z,6.09
2018-01-26T06:18:00.494Z,5.97
2018-01-26T06:19:10.174Z,5.99
2018-01-26T06:20:20.109Z,6.02
2018-01-26T06:21:30.119Z,6.01
2018-01-26T06:22:40.060Z,5.98
2018-01-26T06:23:50.014Z,5.97
2018-01-26T06:24:59.445Z,5.92
2018-01-26T06:26:08.872Z,5.83
2018-01-26T06:27:18.838Z,5.94
2018-01-26T06:28:28.791Z,5.84
2018-01-26T06:29:38.738Z,5.87
2018-01-26T06:30:48.672Z,5.8
2018-01-26T06:31:58.609Z,5.83
2018-01-26T06:33:08.559Z,5.79
2018-01-26T06:34:18.514Z,5.81
2018-01-26T06:35:27.942Z,5.8
2018-01-26T06:36:37.893Z,5.73
2018-01-26T06:37:47.576Z,5.79
2018-01-26T06:38:57.529Z,5.7
2018-01-26T06:40:07.230Z,5.72
2018-01-26T06:41:17.182Z,5.8
2018-01-26T06:42:26.881Z,5.79
2018-01-26T06:43:36.833Z,5.73
2018-01-26T06:44:46.807Z,5.76
2018-01-26T06:45:56.793Z,5.73
2018-01-26T06:47:06.768Z,5.77
2018-01-26T06:48:16.477Z,5.79
2018-01-26T06:49:26.230Z,5.72
2018-01-26T06:50:36.209Z,5.72
2018-01-26T06:51:45.907Z,5.67
2018-01-26T06:52:55.859Z,5.72
2018-01-26T06:54:05.803Z,5.74
2018-01-26T06:55:15.757Z,5.72
2018-01-26T06:56:25.690Z,5.7
2018-01-26T06:57:35.386Z,5.77
2018-01-26T06:58:45.087Z,5.73
2018-01-26T06:59:55.045Z,5.76
2018-01-26T07:01:04.749Z,5.77
2018-01-26T07:02:14.450Z,5.79
2018-01-26T07:03:24.401Z,5.72
2018-01-26T07:04:34.596Z,5.7
2018-01-26T07:05:44.544Z,5.7
2018-01-26T07:06:54.219Z,5.65
2018-01-26T07:08:04.183Z,5.73
2018-01-26T07:09:14.130Z,5.74
2018-01-26T07:10:23.568Z,5.88
2018-01-26T07:11:33.003Z,5.81
2018-01-26T07:12:42.967Z,5.81
2018-01-26T07:13:52.417Z,5.73
2018-01-26T07:15:02.138Z,5.73
2018-01-26T07:16:11.835Z,5.73
2018-01-26T07:17:21.833Z,5.76
2018-01-26T07:18:31.532Z,5.77
2018-01-26T07:19:41.228Z,5.72
2018-01-26T07:20:51.173Z,5.65
2018-01-26T07:22:01.120Z,5.65
2018-01-26T07:23:11.058Z,5.72
2018-01-26T07:24:20.996Z,5.69
2018-01-26T07:25:30.743Z,5.67
2018-01-26T07:26:40.191Z,5.59
2018-01-26T07:27:50.137Z,5.52
2018-01-26T07:29:00.090Z,5.64
2018-01-26T07:30:10.049Z,5.59
2018-01-26T07:31:20.051Z,5.54
2018-01-26T07:32:30.022Z,5.54
2018-01-26T07:33:39.708Z,5.58
2018-01-26T07:34:49.396Z,5.58
2018-01-26T07:35:59.343Z,5.41
2018-01-26T07:37:09.040Z,5.52
2018-01-26T07:38:18.728Z,5.51
2018-01-26T07:39:28.439Z,5.52
2018-01-26T07:40:37.605Z,5.49
2018-01-26T07:41:47.549Z,5.55
2018-01-26T07:42:57.272Z,5.54
2018-01-26T07:44:07.009Z,5.56
2018-01-26T07:45:16.699Z,5.58
2018-01-26T07:46:26.392Z,5.55
2018-01-26T07:47:36.348Z,5.54
2018-01-26T07:48:46.289Z,5.56
2018-01-26T07:49:55.739Z,5.51
2018-01-26T07:51:05.692Z,5.55
2018-01-26T07:52:15.631Z,5.58
2018-01-26T07:53:25.570Z,5.56
2018-01-26T07:54:35.524Z,5.56
2018-01-26T07:55:44.972Z,5.56
2018-01-26T07:56:54.148Z,5.54
2018-01-26T07:58:03.835Z,5.51
2018-01-26T07:59:13.814Z,5.59
2018-01-26T08:00:23.796Z,5.49
2018-01-26T08:01:33.776Z,5.56
2018-01-26T08:02:43.754Z,5.61
2018-01-26T08:03:53.714Z,5.58
2018-01-26T08:05:03.408Z,5.56
2018-01-26T08:06:13.360Z,5.56
2018-01-26T08:07:23.323Z,5.54
2018-01-26T08:08:33.025Z,5.52
2018-01-26T08:09:42.463Z,5.56
2018-01-26T08:10:51.906Z,5.58
2018-01-26T08:12:01.864Z,5.54
2018-01-26T08:13:11.873Z,5.47
2018-01-26T08:14:22.166Z,5.61
2018-01-26T08:15:32.153Z,5.54
2018-01-26T08:16:42.094Z,5.49
2018-01-26T08:17:52.043Z,5.52
2018-01-26T08:19:02.005Z,5.59
2018-01-26T08:20:12.045Z,5.49
2018-01-26T08:21:21.604Z,5.56
2018-01-26T08:22:31.628Z,5.55
2018-01-26T08:23:41.403Z,5.51
2018-01-26T08:24:50.832Z,5.51
2018-01-26T08:26:00.792Z,5.46
2018-01-26T08:27:10.740Z,5.54
2018-01-26T08:28:20.689Z,5.55
2018-01-26T08:29:30.648Z,5.56
2018-01-26T08:30:40.341Z,5.49
2018-01-26T08:31:50.032Z,5.55
2018-01-26T08:32:59.996Z,5.44
2018-01-26T08:34:09.967Z,5.44
2018-01-26T08:35:19.661Z,5.37
2018-01-26T08:36:29.633Z,5.47
2018-01-26T08:37:39.585Z,5.47
2018-01-26T08:38:49.547Z,5.56
2018-01-26T08:39:59.499Z,5.47
2018-01-26T08:41:09.460Z,5.46
2018-01-26T08:42:19.424Z,5.47
2018-01-26T08:43:29.376Z,5.43
2018-01-26T08:44:39.335Z,5.54
2018-01-26T08:45:49.282Z,5.46
2018-01-26T08:46:59.237Z,5.43
2018-01-26T08:48:09.180Z,5.52
2018-01-26T08:49:18.901Z,5.49
2018-01-26T08:50:28.912Z,5.59
2018-01-26T08:51:38.655Z,5.55
2018-01-26T08:52:48.086Z,5.58
2018-01-26T08:53:58.026Z,5.52
2018-01-26T08:55:07.972Z,5.52
2018-01-26T08:56:17.672Z,5.55
2018-01-26T08:57:27.746Z,5.56
2018-01-26T08:58:37.193Z,5.58
2018-01-26T08:59:46.903Z,5.49
2018-01-26T09:00:56.601Z,5.56
2018-01-26T09:02:06.591Z,5.49
2018-01-26T09:03:16.557Z,5.61
2018-01-26T09:04:26.551Z,5.51
2018-01-26T09:05:36.305Z,5.49
2018-01-26T09:06:46.260Z,5.41
2018-01-26T09:07:56.203Z,5.51
2018-01-26T09:09:05.898Z,5.46
2018-01-26T09:10:15.901Z,5.49
2018-01-26T09:11:25.901Z,5.44
2018-01-26T09:12:35.862Z,5.37
2018-01-26T09:13:45.819Z,5.49
2018-01-26T09:14:55.750Z,5.47
2018-01-26T09:16:05.457Z,5.47
2018-01-26T09:17:15.512Z,5.49
2018-01-26T09:18:25.477Z,5.46
2018-01-26T09:19:35.437Z,5.43
2018-01-26T09:20:44.874Z,5.52
2018-01-26T09:21:54.571Z,5.44
2018-01-26T09:23:04.536Z,5.49
2018-01-26T09:24:14.253Z,5.59
2018-01-26T09:25:24.222Z,5.51
2018-01-26T09:26:33.712Z,5.49
2018-01-26T09:27:43.674Z,5.49
2018-01-26T09:28:53.372Z,5.41
2018-01-26T09:30:03.071Z,5.54
2018-01-26T09:31:13.141Z,5.43
2018-01-26T09:32:23.104Z,5.56
2018-01-26T09:33:33.082Z,5.55
2018-01-26T09:34:43.034Z,5.51
2018-01-26T09:35:53.043Z,5.49
2018-01-26T09:37:03.056Z,5.51
2018-01-26T09:38:13.032Z,5.59
2018-01-26T09:39:22.998Z,5.59
2018-01-26T09:40:32.965Z,5.7
2018-01-26T09:41:42.655Z,5.67
2018-01-26T09:42:52.731Z,5.72
2018-01-26T09:44:02.461Z,5.67
2018-01-26T09:45:12.186Z,5.62
2018-01-26T09:46:22.152Z,5.67
2018-01-26T09:47:31.864Z,5.69
2018-01-26T09:48:41.934Z,5.67
2018-01-26T09:49:51.894Z,5.8
2018-01-26T09:51:01.600Z,5.79
2018-01-26T09:52:11.076Z,5.7
2018-01-26T09:53:21.027Z,5.67
2018-01-26T09:54:31.210Z,5.69
2018-01-26T09:55:40.904Z,5.69
2018-01-26T09:56:50.856Z,5.65
2018-01-26T09:58:00.555Z,5.7
2018-01-26T09:59:10.259Z,5.69
2018-01-26T10:00:20.261Z,5.67
2018-01-26T10:01:29.691Z,5.69
2018-01-26T10:02:39.636Z,5.7
2018-01-26T10:03:49.594Z,5.72
2018-01-26T10:04:59.578Z,5.67
2018-01-26T10:06:09.569Z,5.72
2018-01-26T10:07:19.308Z,5.72
2018-01-26T10:08:28.746Z,5.67
2018-01-26T10:09:38.208Z,5.64
2018-01-26T10:10:48.167Z,5.56
2018-01-26T10:11:58.109Z,5.69
2018-01-26T10:13:07.851Z,5.65
2018-01-26T10:14:17.801Z,5.74
2018-01-26T10:15:27.485Z,5.61
2018-01-26T10:16:37.467Z,5.72
2018-01-26T10:17:47.217Z,5.83
2018-01-26T10:18:57.207Z,5.73
2018-01-26T10:20:07.160Z,5.72
2018-01-26T10:21:16.867Z,5.73
2018-01-26T10:22:26.825Z,5.8
2018-01-26T10:23:36.774Z,5.77
2018-01-26T10:24:46.213Z,5.73
2018-01-26T10:25:56.195Z,5.77
2018-01-26T10:27:06.143Z,5.81
2018-01-26T10:28:16.155Z,5.74
2018-01-26T10:29:26.154Z,5.73
2018-01-26T10:30:35.855Z,5.81
2018-01-26T10:31:45.835Z,5.84
2018-01-26T10:32:55.806Z,5.84
2018-01-26T10:34:05.877Z,5.83
2018-01-26T10:35:15.877Z,5.88
2018-01-26T10:36:25.614Z,5.9
2018-01-26T10:37:35.328Z,5.84
2018-01-26T10:38:45.284Z,5.91
2018-01-26T10:39:55.643Z,5.83
2018-01-26T10:41:05.596Z,5.95
2018-01-26T10:42:15.553Z,5.97
2018-01-26T10:43:25.513Z,6.06
2018-01-26T10:44:35.200Z,5.98
2018-01-26T10:45:45.209Z,6.07
2018-01-26T10:46:54.909Z,6.12
2018-01-26T10:48:04.871Z,6.01
2018-01-26T10:49:14.887Z,6.16
2018-01-26T10:50:24.620Z,6.13
2018-01-26T10:51:34.360Z,6.16
2018-01-26T10:52:44.305Z,6.16
2018-01-26T10:53:53.999Z,6.16
2018-01-26T10:55:03.743Z,6.19
2018-01-26T10:56:13.444Z,6.22
2018-01-26T10:57:23.434Z,6.19
2018-01-26T10:58:33.124Z,6.15
2018-01-26T10:59:42.811Z,6.16
2018-01-26T11:00:52.803Z,6.26
2018-01-26T11:02:02.513Z,6.22
2018-01-26T11:03:12.534Z,6.22
2018-01-26T11:04:22.564Z,6.28
2018-01-26T11:05:32.518Z,6.19
2018-01-26T11:06:42.496Z,6.28
2018-01-26T11:07:52.454Z,6.28
2018-01-26T11:09:02.214Z,6.31
2018-01-26T11:10:12.216Z,6.31
2018-01-26T11:11:21.977Z,6.31
2018-01-26T11:12:31.968Z,6.29
2018-01-26T11:13:41.675Z,6.28
2018-01-26T11:14:51.625Z,6.26
2018-01-26T11:16:01.583Z,6.26
2018-01-26T11:17:11.542Z,6.29
2018-01-26T11:18:21.507Z,6.35
2018-01-26T11:19:31.458Z,6.35
2018-01-26T11:20:41.184Z,6.35
2018-01-26T11:21:50.876Z,6.35
2018-01-26T11:23:00.851Z,6.34
2018-01-26T11:24:10.807Z,6.35
2018-01-26T11:25:20.771Z,6.39
2018-01-26T11:26:30.752Z,6.31
2018-01-26T11:27:40.742Z,6.31
2018-01-26T11:28:50.721Z,6.31
2018-01-26T11:30:00.412Z,6.36
2018-01-26T11:31:10.367Z,6.43
2018-01-26T11:32:20.393Z,6.38
2018-01-26T11:33:30.369Z,6.32
2018-01-26T11:34:40.349Z,6.36
2018-01-26T11:35:50.063Z,6.35
2018-01-26T11:37:00.022Z,6.38
2018-01-26T11:38:09.978Z,6.38
2018-01-26T11:39:19.948Z,6.32
2018-01-26T11:40:29.636Z,6.34
2018-01-26T11:41:39.610Z,6.36
2018-01-26T11:42:49.574Z,6.34
2018-01-26T11:43:59.540Z,6.35
2018-01-26T11:45:09.246Z,6.34
2018-01-26T11:46:19.231Z,6.31
2018-01-26T11:47:29.171Z,6.36
2018-01-26T11:48:39.111Z,6.35
2018-01-26T11:49:48.808Z,6.43
2018-01-26T11:50:58.836Z,6.44
2018-01-26T11:52:08.792Z,6.47
2018-01-26T11:53:18.757Z,6.44
2018-01-26T11:54:28.718Z,6.38
2018-01-26T11:55:38.415Z,6.38
2018-01-26T11:56:48.112Z,6.47
2018-01-26T11:57:58.220Z,6.53
2018-01-26T11:59:08.180Z,6.54
2018-01-26T12:00:18.148Z,6.6
2018-01-26T12:01:28.108Z,6.57
2018-01-26T12:02:37.808Z,6.52
2018-01-26T12:03:47.526Z,6.6
2018-01-26T12:04:57.519Z,6.62
2018-01-26T12:06:07.520Z,6.67
2018-01-26T12:07:17.228Z,6.59
2018-01-26T12:08:26.916Z,6.62
2018-01-26T12:09:36.605Z,6.68
2018-01-26T12:10:46.567Z,6.64
2018-01-26T12:11:56.524Z,6.72
2018-01-26T12:13:06.499Z,6.71
2018-01-26T12:14:16.477Z,6.75
2018-01-26T12:15:26.442Z,6.77
2018-01-26T12:16:36.400Z,6.82
2018-01-26T12:17:46.099Z,6.85
2018-01-26T12:18:55.785Z,6.85
2018-01-26T12:20:05.785Z,6.85
2018-01-26T12:21:15.764Z,6.87
2018-01-26T12:22:25.467Z,6.89
2018-01-26T12:23:35.428Z,6.85
2018-01-26T12:24:45.141Z,6.86
2018-01-26T12:25:54.591Z,6.89
2018-01-26T12:27:04.539Z,6.9
2018-01-26T12:28:14.561Z,6.95
2018-01-26T12:29:24.527Z,6.86
2018-01-26T12:30:34.510Z,6.8
2018-01-26T12:31:44.469Z,6.85
2018-01-26T12:32:54.167Z,6.85
2018-01-26T12:34:04.159Z,6.92
2018-01-26T12:35:14.447Z,6.95
2018-01-26T12:36:24.162Z,7
2018-01-26T12:37:34.117Z,7.01
2018-01-26T12:38:44.096Z,7.07
2018-01-26T12:39:53.807Z,7.01
2018-01-26T12:41:03.842Z,7.1
2018-01-26T12:42:13.829Z,7.18
2018-01-26T12:43:23.828Z,7.31
2018-01-26T12:44:33.791Z,7.31
2018-01-26T12:45:43.777Z,7.32
2018-01-26T12:46:53.509Z,7.33
2018-01-26T12:48:03.228Z,7.29
2018-01-26T12:49:12.938Z,7.32
2018-01-26T12:50:22.930Z,7.37
2018-01-26T12:51:33.220Z,7.33
2018-01-26T12:52:43.100Z,7.33
2018-01-26T12:53:53.097Z,7.37
2018-01-26T12:55:02.841Z,7.33
2018-01-26T12:56:12.591Z,7.37
2018-01-26T12:57:22.531Z,7.43
2018-01-26T12:58:32.579Z,7.46
2018-01-26T12:59:42.560Z,7.46
2018-01-26T13:00:52.300Z,7.44
2018-01-26T13:02:02.217Z,7.47
2018-01-26T13:03:12.181Z,7.44
2018-01-26T13:04:22.213Z,7.48
2018-01-26T13:05:32.221Z,7.53
2018-01-26T13:06:42.193Z,7.53
2018-01-26T13:07:52.211Z,7.58
2018-01-26T13:09:01.943Z,7.58
2018-01-26T13:10:11.984Z,7.59
2018-01-26T13:11:21.950Z,7.61
2018-01-26T13:12:31.921Z,7.58
2018-01-26T13:13:41.870Z,7.64
2018-01-26T13:14:51.612Z,7.66
2018-01-26T13:16:01.581Z,7.64
2018-01-26T13:17:11.544Z,7.64
2018-01-26T13:18:21.507Z,7.66
2018-01-26T13:19:31.510Z,7.77
2018-01-26T13:20:41.738Z,7.72
2018-01-26T13:21:51.732Z,7.75
2018-01-26T13:23:01.704Z,7.75
2018-01-26T13:24:11.680Z,7.88
2018-01-26T13:25:21.509Z,7.81
2018-01-26T13:26:31.502Z,7.87
2018-01-26T13:27:41.251Z,7.83
2018-01-26T13:28:50.958Z,7.87
2018-01-26T13:30:00.940Z,7.91
2018-01-26T13:31:10.891Z,7.93
2018-01-26T13:32:20.350Z,7.96
2018-01-26T13:33:30.060Z,7.91
2018-01-26T13:34:39.764Z,7.99
2018-01-26T13:35:49.722Z,8.01
2018-01-26T13:36:59.230Z,7.9
2018-01-26T13:38:08.959Z,8.03
2018-01-26T13:39:18.687Z,7.93
2018-01-26T13:40:28.661Z,7.98
2018-01-26T13:41:38.635Z,7.9
2018-01-26T13:42:48.333Z,7.8
2018-01-26T13:43:58.074Z,7.87
2018-01-26T13:45:08.294Z,7.88
2018-01-26T13:46:18.264Z,7.8
2018-01-26T13:47:28.220Z,7.85
2018-01-26T13:48:37.668Z,7.81
2018-01-26T13:49:47.625Z,7.8
2018-01-26T13:50:57.605Z,7.75
2018-01-26T13:52:07.300Z,7.75
2018-01-26T13:53:17.269Z,7.75
2018-01-26T13:54:27.218Z,7.66
2018-01-26T13:55:37.187Z,7.62
2018-01-26T13:56:47.162Z,7.7
2018-01-26T13:57:56.896Z,7.62
2018-01-26T13:59:06.860Z,7.74
2018-01-26T14:00:16.822Z,7.7
2018-01-26T14:01:26.883Z,7.77
2018-01-26T14:02:36.831Z,7.66
2018-01-26T14:03:46.273Z,7.74
2018-01-26T14:04:55.975Z,7.78
2018-01-26T14:06:05.733Z,7.77
2018-01-26T14:07:15.682Z,7.8
2018-01-26T14:08:25.631Z,7.78
2018-01-26T14:09:35.321Z,7.75
2018-01-26T14:10:45.037Z,7.74
2018-01-26T14:11:55.078Z,7.72
2018-01-26T14:13:05.088Z,7.77
2018-01-26T14:14:14.864Z,7.7
2018-01-26T14:15:24.350Z,7.69
2018-01-26T14:16:34.305Z,7.74
2018-01-26T14:17:43.743Z,7.7
2018-01-26T14:18:53.720Z,7.7
2018-01-26T14:20:03.677Z,7.83
2018-01-26T14:21:13.394Z,7.75
2018-01-26T14:22:23.096Z,7.78
2018-01-26T14:23:33.064Z,7.8
2018-01-26T14:24:42.773Z,7.77
2018-01-26T14:25:52.717Z,7.64
2018-01-26T14:27:02.677Z,7.64
2018-01-26T14:28:12.619Z,7.66
2018-01-26T14:29:22.053Z,7.64
2018-01-26T14:30:32.025Z,7.64
2018-01-26T14:31:41.987Z,7.7
2018-01-26T14:32:51.697Z,7.62
2018-01-26T14:34:01.142Z,7.62
2018-01-26T14:35:11.093Z,7.69
2018-01-26T14:36:21.049Z,7.64
2018-01-26T14:37:30.861Z,7.69
2018-01-26T14:38:40.573Z,7.78
2018-01-26T14:39:50.546Z,7.67
2018-01-26T14:41:00.239Z,7.7
2018-01-26T14:42:10.193Z,7.72
2018-01-26T14:43:19.888Z,7.74
2018-01-26T14:44:29.838Z,7.7
2018-01-26T14:45:39.556Z,7.75
2018-01-26T14:46:49.517Z,7.72
2018-01-26T14:47:59.468Z,7.75
2018-01-26T14:49:09.422Z,7.81
2018-01-26T14:50:19.377Z,7.8
2018-01-26T14:51:29.340Z,7.78
2018-01-26T14:52:39.291Z,7.75
2018-01-26T14:53:49.242Z,7.75
2018-01-26T14:54:59.197Z,7.75
2018-01-26T14:56:09.388Z,7.8
2018-01-26T14:57:19.100Z,7.69
2018-01-26T14:58:29.072Z,7.8
2018-01-26T14:59:38.765Z,7.7
2018-01-26T15:00:48.712Z,7.69
2018-01-26T15:01:58.419Z,7.61
2018-01-26T15:03:08.110Z,7.69
2018-01-26T15:04:17.794Z,7.78
2018-01-26T15:05:27.270Z,7.69
2018-01-26T15:06:37.227Z,7.67
2018-01-26T15:07:46.939Z,7.75
2018-01-26T15:08:56.635Z,7.75
2018-01-26T15:10:06.346Z,7.7
2018-01-26T15:11:16.058Z,7.8
2018-01-26T15:12:25.817Z,7.83
2018-01-26T15:13:35.522Z,7.75
2018-01-26T15:14:45.475Z,7.75
2018-01-26T15:15:55.430Z,7.78
2018-01-26T15:17:05.392Z,7.81
2018-01-26T15:18:15.078Z,7.74
2018-01-26T15:19:25.027Z,7.77
2018-01-26T15:20:34.239Z,7.7
2018-01-26T15:21:44.188Z,7.74
2018-01-26T15:22:54.131Z,7.8
2018-01-26T15:24:04.078Z,7.8
2018-01-26T15:25:14.047Z,7.75
2018-01-26T15:26:24.027Z,7.62
2018-01-26T15:27:33.463Z,7.61
2018-01-26T15:28:43.459Z,7.67
2018-01-26T15:29:53.170Z,7.62
2018-01-26T15:31:03.130Z,7.61
2018-01-26T15:32:13.126Z,7.61
2018-01-26T15:33:23.096Z,7.64